createdAt,value
2022-08-14T00:01:57.939Z,9.18
2022-08-14T00:04:42.051Z,9.75
2022-08-14T00:07:19.046Z,10.63
2022-08-14T00:09:55.723Z,8.90
2022-08-14T00:12:40.243Z,9.35
2022-08-14T00:15:18.056Z,8.63
2022-08-14T00:17:53.249Z,9.95
2022-08-14T00:20:31.015Z,10.10
2022-08-14T00:23:17.008Z,11.40
2022-08-14T00:26:06.143Z,10.55
2022-08-14T00:28:42.694Z,9.95
2022-08-14T00:31:16.825Z,11.07
2022-08-14T00:33:53.000Z,9.55
2022-08-14T00:36:35.670Z,9.98
2022-08-14T00:39:22.192Z,13.52
2022-08-14T00:41:57.576Z,8.93
2022-08-14T00:44:32.419Z,12.15
2022-08-14T00:47:10.796Z,10.18
2022-08-14T00:49:45.882Z,10.65
2022-08-14T00:52:23.162Z,10.10
2022-08-14T00:54:58.504Z,9.52
2022-08-14T00:57:35.574Z,9.88
2022-08-14T01:00:34.244Z,9.20
2022-08-14T01:03:09.669Z,8.60
2022-08-14T01:05:51.947Z,10.00
2022-08-14T01:08:57.606Z,9.55
2022-08-14T01:11:23.263Z,10.52
2022-08-14T01:14:01.431Z,9.80
2022-08-14T01:16:53.231Z,10.32
2022-08-14T01:19:48.115Z,10.02
2022-08-14T01:22:26.921Z,9.82
2022-08-14T01:25:04.278Z,11.60
2022-08-14T01:27:52.516Z,10.02
2022-08-14T01:30:36.609Z,10.82
2022-08-14T01:33:13.999Z,9.27
2022-08-14T01:36:04.512Z,10.57
2022-08-14T01:38:48.853Z,9.55
2022-08-14T01:41:30.255Z,11.98
2022-08-14T01:44:33.505Z,9.25
2022-08-14T01:47:21.407Z,9.25
2022-08-14T01:50:01.174Z,9.82
2022-08-14T01:52:59.399Z,9.25
2022-08-14T01:55:32.905Z,9.27
2022-08-14T01:58:19.961Z,9.43
2022-08-14T02:00:56.513Z,11.80
2022-08-14T02:03:32.108Z,9.35
2022-08-14T02:06:33.022Z,10.20
2022-08-14T02:09:04.289Z,9.80
2022-08-14T02:11:45.104Z,10.32
2022-08-14T02:14:31.362Z,9.85
2022-08-14T02:17:07.261Z,10.30
2022-08-14T02:19:41.183Z,9.77
2022-08-14T02:22:32.583Z,10.02
2022-08-14T02:25:07.981Z,8.93
2022-08-14T02:28:22.752Z,8.85
2022-08-14T02:30:41.189Z,9.80
2022-08-14T02:33:15.248Z,9.75
2022-08-14T02:35:53.523Z,9.63
2022-08-14T02:38:35.140Z,9.80
2022-08-14T02:41:17.768Z,9.07
2022-08-14T02:46:35.680Z,9.32
2022-08-14T02:49:15.430Z,8.68
2022-08-14T02:51:50.282Z,9.55
2022-08-14T02:54:27.835Z,9.18
2022-08-14T02:57:15.150Z,9.10
2022-08-14T03:00:01.664Z,9.00
2022-08-14T03:02:56.811Z,9.88
2022-08-14T03:05:36.213Z,8.98
2022-08-14T03:08:15.375Z,9.35
2022-08-14T03:10:50.470Z,8.45
2022-08-14T03:13:24.397Z,10.10
2022-08-14T03:16:00.902Z,9.65
2022-08-14T03:18:44.650Z,8.27
2022-08-14T03:21:20.591Z,8.68
2022-08-14T03:24:03.182Z,9.10
2022-08-14T03:26:41.019Z,10.20
2022-08-14T03:29:20.643Z,9.65
2022-08-14T03:32:00.126Z,10.25
2022-08-14T03:34:47.728Z,11.98
2022-08-14T03:37:37.467Z,9.43
2022-08-14T03:40:18.286Z,9.38
2022-08-14T03:42:52.722Z,9.70
2022-08-14T03:45:35.158Z,9.35
2022-08-14T03:48:30.657Z,8.68
2022-08-14T03:51:06.515Z,9.15
2022-08-14T03:53:44.060Z,10.95
2022-08-14T03:56:21.341Z,8.98
2022-08-14T03:58:58.590Z,10.75
2022-08-14T04:01:39.309Z,10.30
2022-08-14T04:04:21.125Z,8.60
2022-08-14T04:06:58.764Z,8.63
2022-08-14T04:09:32.971Z,9.55
2022-08-14T04:14:47.297Z,9.07
2022-08-14T04:17:22.723Z,9.50
2022-08-14T04:19:59.613Z,10.38
2022-08-14T04:22:33.855Z,9.32
2022-08-14T04:25:08.588Z,10.82
2022-08-14T04:28:01.786Z,12.27
2022-08-14T04:30:42.244Z,8.48
2022-08-14T04:33:20.769Z,12.20
2022-08-14T04:35:57.226Z,10.43
2022-08-14T04:38:48.415Z,10.10
2022-08-14T04:41:48.129Z,9.40
2022-08-14T04:44:35.827Z,10.70
2022-08-14T04:47:30.908Z,9.75
2022-08-14T04:50:05.421Z,9.82
2022-08-14T04:52:40.981Z,8.98
2022-08-14T04:55:16.687Z,9.48
2022-08-14T04:57:52.299Z,8.40
2022-08-14T05:00:27.459Z,8.52
2022-08-14T05:03:03.598Z,9.30
2022-08-14T05:05:41.456Z,9.60
2022-08-14T05:08:31.906Z,9.35
2022-08-14T05:11:13.631Z,9.40
2022-08-14T05:16:46.513Z,10.90
2022-08-14T05:19:27.229Z,10.13
2022-08-14T05:22:17.350Z,8.65
2022-08-14T05:24:54.240Z,8.63
2022-08-14T05:27:31.113Z,10.55
2022-08-14T05:30:07.831Z,8.88
2022-08-14T05:32:42.614Z,9.30
2022-08-14T05:35:21.766Z,9.52
2022-08-14T05:37:56.276Z,10.00
2022-08-14T05:40:33.040Z,8.77
2022-08-14T05:43:07.039Z,9.35
2022-08-14T05:45:43.028Z,10.63
2022-08-14T05:48:32.889Z,9.10
2022-08-14T05:51:07.895Z,8.10
2022-08-14T05:53:44.172Z,8.60
2022-08-14T05:56:37.341Z,8.05
2022-08-14T05:59:12.511Z,8.95
2022-08-14T06:01:46.698Z,9.20
2022-08-14T06:04:21.360Z,9.90
2022-08-14T06:06:55.202Z,8.63
2022-08-14T06:09:35.527Z,8.57
2022-08-14T06:12:56.060Z,8.52
2022-08-14T06:15:10.774Z,7.68
2022-08-14T06:17:47.071Z,11.32
2022-08-14T06:20:22.127Z,8.13
2022-08-14T06:22:56.297Z,7.95
2022-08-14T06:25:30.933Z,9.55
2022-08-14T06:28:06.608Z,8.32
2022-08-14T06:31:00.551Z,8.88
2022-08-14T06:35:02.718Z,9.65
2022-08-14T06:39:02.862Z,7.82
2022-08-14T06:41:57.894Z,8.10
2022-08-14T06:44:33.250Z,8.23
2022-08-14T06:47:08.977Z,9.65
2022-08-14T06:49:54.583Z,10.88
2022-08-14T06:52:30.478Z,7.85
2022-08-14T06:55:04.678Z,8.45
2022-08-14T06:57:40.087Z,7.72
2022-08-14T07:00:22.317Z,9.63
2022-08-14T07:03:19.290Z,11.20
2022-08-14T07:05:58.487Z,8.68
2022-08-14T07:08:34.485Z,9.10
2022-08-14T07:11:10.002Z,9.20
2022-08-14T07:13:44.086Z,9.20
2022-08-14T07:16:24.104Z,9.02
2022-08-14T07:19:01.350Z,7.78
2022-08-14T07:21:35.392Z,9.02
2022-08-14T07:24:21.906Z,8.75
2022-08-14T07:27:00.073Z,8.73
2022-08-14T07:29:34.235Z,8.70
2022-08-14T07:32:11.428Z,9.43
2022-08-14T07:34:53.962Z,9.13
2022-08-14T07:37:29.357Z,9.52
2022-08-14T07:40:03.931Z,9.07
2022-08-14T07:42:38.030Z,11.00
2022-08-14T07:45:15.227Z,8.93
2022-08-14T07:47:51.452Z,9.63
2022-08-14T07:50:26.153Z,17.58
2022-08-14T07:53:09.049Z,15.77
2022-08-14T07:55:43.610Z,14.52
2022-08-14T07:58:30.341Z,14.75
2022-08-14T08:01:09.472Z,15.43
2022-08-14T08:03:49.495Z,17.15
2022-08-14T08:06:23.821Z,27.33
2022-08-14T08:09:03.200Z,83.38
2022-08-14T08:11:38.257Z,74.75
2022-08-14T08:14:17.235Z,45.88
2022-08-14T08:16:51.546Z,43.97
2022-08-14T08:19:27.139Z,36.08
2022-08-14T08:22:10.745Z,46.60
2022-08-14T08:24:44.775Z,41.92
2022-08-14T08:30:10.133Z,43.97
2022-08-14T08:32:46.093Z,52.20
2022-08-14T08:35:23.670Z,44.85
2022-08-14T08:38:14.406Z,32.65
2022-08-14T08:41:00.846Z,34.58
2022-08-14T08:43:38.197Z,34.08
2022-08-14T08:46:21.652Z,34.92
2022-08-14T08:51:34.794Z,30.75
2022-08-14T08:54:15.293Z,40.08
2022-08-14T08:56:53.113Z,36.30
2022-08-14T08:59:34.303Z,31.55
2022-08-14T09:02:10.802Z,34.25
2022-08-14T09:04:53.556Z,24.83
2022-08-14T09:07:30.603Z,27.15
2022-08-14T09:10:06.185Z,23.92
2022-08-14T09:12:42.175Z,31.17
2022-08-14T09:15:21.690Z,30.60
2022-08-14T09:17:59.495Z,27.85
2022-08-14T09:20:33.947Z,24.20
2022-08-14T09:23:16.864Z,28.52
2022-08-14T09:26:01.001Z,27.40
2022-08-14T09:28:35.842Z,23.10
2022-08-14T09:31:11.965Z,30.75
2022-08-14T09:34:19.713Z,20.98
2022-08-14T09:37:15.922Z,20.55
2022-08-14T09:40:05.016Z,23.73
2022-08-14T09:42:51.712Z,24.33
2022-08-14T09:45:40.345Z,24.20
2022-08-14T09:48:31.083Z,20.42
2022-08-14T09:54:17.998Z,20.98
2022-08-14T09:56:51.679Z,21.30
2022-08-14T09:59:42.148Z,20.63
2022-08-14T10:02:24.236Z,16.13
2022-08-14T10:05:04.062Z,24.10
2022-08-14T10:07:53.466Z,18.45
2022-08-14T10:10:34.368Z,16.90
2022-08-14T10:13:23.668Z,18.27
2022-08-14T10:16:01.327Z,19.10
2022-08-14T10:18:36.490Z,20.10
2022-08-14T10:21:18.237Z,19.98
2022-08-14T10:23:53.174Z,23.60
2022-08-14T10:26:28.494Z,17.95
2022-08-14T10:29:20.159Z,16.30
2022-08-14T10:32:00.329Z,17.83
2022-08-14T10:34:38.673Z,14.55
2022-08-14T10:37:16.960Z,18.05
2022-08-14T10:40:05.705Z,14.95
2022-08-14T10:42:47.109Z,14.18
2022-08-14T10:45:25.794Z,18.30
2022-08-14T10:48:09.300Z,17.27
2022-08-14T10:50:57.515Z,18.98
2022-08-14T10:53:33.093Z,15.30
2022-08-14T10:56:22.009Z,12.27
2022-08-14T10:59:08.246Z,13.75
2022-08-14T11:01:43.871Z,14.60
2022-08-14T11:04:30.712Z,16.80
2022-08-14T11:07:16.918Z,14.48
2022-08-14T11:09:55.948Z,15.40
2022-08-14T11:12:42.272Z,13.88
2022-08-14T11:15:18.249Z,14.95
2022-08-14T11:17:53.765Z,15.25
2022-08-14T11:20:29.990Z,13.75
2022-08-14T11:23:06.121Z,13.40
2022-08-14T11:25:53.178Z,14.45
2022-08-14T11:28:48.144Z,13.00
2022-08-14T11:31:24.826Z,15.23
2022-08-14T11:34:00.368Z,15.02
2022-08-14T11:37:04.405Z,13.02
2022-08-14T11:39:35.065Z,11.10
2022-08-14T11:42:58.038Z,12.90
2022-08-14T11:45:18.934Z,13.23
2022-08-14T11:48:13.107Z,13.65
2022-08-14T11:50:54.619Z,13.95
2022-08-14T11:53:31.651Z,11.13
2022-08-14T11:56:07.435Z,12.43
2022-08-14T11:58:45.101Z,13.63
2022-08-14T12:01:28.590Z,11.68
2022-08-14T12:04:31.824Z,9.77
2022-08-14T12:09:43.546Z,11.30
2022-08-14T12:12:35.096Z,14.20
2022-08-14T12:15:12.594Z,11.02
2022-08-14T12:17:50.538Z,11.80
2022-08-14T12:20:32.270Z,10.23
2022-08-14T12:23:23.755Z,13.70
2022-08-14T12:26:31.686Z,15.60
2022-08-14T12:29:08.652Z,12.43
2022-08-14T12:31:46.990Z,12.02
2022-08-14T12:34:24.132Z,12.65
2022-08-14T12:37:06.052Z,11.18
2022-08-14T12:39:41.515Z,12.95
2022-08-14T12:42:34.552Z,13.30
2022-08-14T12:45:17.237Z,11.25
2022-08-14T12:48:00.590Z,11.00
2022-08-14T12:50:54.693Z,15.13
2022-08-14T12:53:38.683Z,16.23
2022-08-14T12:59:08.799Z,14.23
2022-08-14T13:02:00.301Z,13.10
2022-08-14T13:07:17.110Z,14.60
2022-08-14T13:09:56.523Z,12.82
2022-08-14T13:12:43.193Z,15.82
2022-08-14T13:15:27.932Z,13.38
2022-08-14T13:18:05.601Z,14.18
2022-08-14T13:20:51.806Z,13.93
2022-08-14T13:23:36.453Z,14.85
2022-08-14T13:26:11.892Z,14.93
2022-08-14T13:29:02.376Z,17.15
2022-08-14T13:31:40.375Z,19.77
2022-08-14T13:34:17.608Z,14.35
2022-08-14T13:36:58.787Z,14.52
2022-08-14T13:39:38.029Z,17.77
2022-08-14T13:42:14.975Z,15.65
2022-08-14T13:44:53.694Z,16.38
2022-08-14T13:47:31.009Z,17.10
2022-08-14T13:50:08.635Z,13.88
2022-08-14T13:52:51.499Z,16.58
2022-08-14T13:55:28.675Z,17.02
2022-08-14T13:58:05.302Z,13.50
2022-08-14T14:00:53.356Z,15.82
2022-08-14T14:03:30.461Z,14.48
2022-08-14T14:06:06.959Z,14.73
2022-08-14T14:08:48.115Z,18.70
2022-08-14T14:11:24.367Z,16.63
2022-08-14T14:14:00.675Z,14.20
2022-08-14T14:16:36.970Z,13.45
2022-08-14T14:19:11.424Z,17.15
2022-08-14T14:21:45.798Z,12.27
2022-08-14T14:24:20.880Z,16.08
2022-08-14T14:26:58.482Z,12.55
2022-08-14T14:29:50.486Z,15.15
2022-08-14T14:32:31.334Z,13.63
2022-08-14T14:35:07.386Z,12.95
2022-08-14T14:37:43.609Z,16.42
2022-08-14T14:40:53.980Z,14.57
2022-08-14T14:43:13.982Z,13.27
2022-08-14T14:45:50.601Z,12.85
2022-08-14T14:48:29.645Z,14.07
2022-08-14T14:51:04.658Z,13.07
2022-08-14T14:53:40.338Z,13.55
2022-08-14T14:56:47.912Z,13.95
2022-08-14T14:59:08.899Z,18.23
2022-08-14T15:01:49.077Z,14.73
2022-08-14T15:04:26.173Z,13.38
2022-08-14T15:07:00.529Z,14.18
2022-08-14T15:09:35.905Z,15.82
2022-08-14T15:12:34.335Z,13.57
2022-08-14T15:15:08.574Z,13.10
2022-08-14T15:17:43.315Z,14.07
2022-08-14T15:20:29.614Z,22.80
2022-08-14T15:23:11.997Z,18.77
2022-08-14T15:25:52.378Z,19.38
2022-08-14T15:28:27.983Z,16.33
2022-08-14T15:31:12.986Z,13.65
2022-08-14T15:34:43.445Z,16.25
2022-08-14T15:37:13.146Z,13.20
2022-08-14T15:39:52.371Z,17.92
2022-08-14T15:42:26.715Z,15.55
2022-08-14T15:45:01.648Z,15.27
2022-08-14T15:47:41.640Z,17.20
2022-08-14T15:50:16.745Z,17.75
2022-08-14T15:52:54.857Z,13.38
2022-08-14T15:55:30.529Z,13.52
2022-08-14T15:58:06.425Z,14.73
2022-08-14T16:00:59.296Z,13.98
2022-08-14T16:03:37.254Z,14.30
2022-08-14T16:06:18.095Z,14.60
2022-08-14T16:08:58.516Z,15.40
2022-08-14T16:11:35.074Z,15.65
2022-08-14T16:14:10.847Z,14.57
2022-08-14T16:16:50.210Z,12.88
2022-08-14T16:19:32.721Z,14.27
2022-08-14T16:22:59.525Z,13.43
2022-08-14T16:25:18.245Z,14.05
2022-08-14T16:27:55.347Z,14.48
2022-08-14T16:30:29.797Z,16.88
2022-08-14T16:33:04.888Z,13.07
2022-08-14T16:35:42.331Z,14.57
2022-08-14T16:38:45.985Z,13.38
2022-08-14T16:41:30.415Z,12.88
2022-08-14T16:44:06.179Z,14.40
2022-08-14T16:46:57.503Z,13.52
2022-08-14T16:50:03.162Z,16.15
2022-08-14T16:52:44.224Z,12.85
2022-08-14T16:55:19.846Z,13.98
2022-08-14T16:57:58.920Z,12.48
2022-08-14T17:00:43.378Z,13.30
2022-08-14T17:03:18.228Z,13.20
2022-08-14T17:05:53.858Z,13.75
2022-08-14T17:08:41.706Z,12.82
2022-08-14T17:11:20.657Z,12.75
2022-08-14T17:14:03.510Z,12.55
2022-08-14T17:16:38.441Z,12.38
2022-08-14T17:19:17.629Z,12.50
2022-08-14T17:21:54.723Z,11.93
2022-08-14T17:24:57.290Z,11.90
2022-08-14T17:27:23.761Z,13.00
2022-08-14T17:29:59.125Z,11.98
2022-08-14T17:32:44.463Z,12.32
2022-08-14T17:35:38.955Z,11.68
2022-08-14T17:38:39.216Z,10.77
2022-08-14T17:41:32.771Z,12.30
2022-08-14T17:44:34.103Z,14.68
2022-08-14T17:47:20.451Z,12.77
2022-08-14T17:49:55.766Z,12.82
2022-08-14T17:52:41.348Z,13.82
2022-08-14T17:56:02.317Z,14.43
2022-08-14T17:58:20.514Z,12.68
2022-08-14T18:00:57.931Z,11.35
2022-08-14T18:03:50.077Z,12.90
2022-08-14T18:06:39.857Z,13.23
2022-08-14T18:09:25.474Z,13.73
2022-08-14T18:12:03.754Z,11.80
2022-08-14T18:14:48.625Z,11.88
2022-08-14T18:17:27.654Z,11.55
2022-08-14T18:20:16.051Z,13.88
2022-08-14T18:23:01.557Z,13.55
2022-08-14T18:25:47.351Z,12.80
2022-08-14T18:28:48.444Z,14.93
2022-08-14T18:31:44.150Z,13.65
2022-08-14T18:34:31.311Z,14.10
2022-08-14T18:37:21.242Z,12.40
2022-08-14T18:40:03.064Z,15.85
2022-08-14T18:42:44.589Z,14.10
2022-08-14T18:45:28.557Z,14.23
2022-08-14T18:48:50.249Z,13.70
2022-08-14T18:51:45.237Z,14.20
2022-08-14T18:54:37.495Z,15.75
2022-08-14T18:57:11.546Z,17.08
2022-08-14T18:59:45.649Z,23.75
2022-08-14T19:02:44.618Z,18.33
2022-08-14T19:06:00.144Z,13.38
2022-08-14T19:08:38.831Z,13.55
2022-08-14T19:11:50.308Z,15.82
2022-08-14T19:14:47.503Z,14.20
2022-08-14T19:18:14.488Z,14.65
2022-08-14T19:20:52.758Z,13.45
2022-08-14T19:23:44.278Z,12.00
2022-08-14T19:26:36.708Z,12.52
2022-08-14T19:29:37.514Z,14.38
2022-08-14T19:32:39.365Z,15.43
2022-08-14T19:35:55.189Z,13.48
2022-08-14T19:38:53.740Z,13.32
2022-08-14T19:41:30.629Z,15.38
2022-08-14T19:44:10.937Z,13.35
2022-08-14T19:46:59.771Z,13.13
2022-08-14T19:50:07.976Z,15.15
2022-08-14T19:52:40.007Z,13.18
2022-08-14T19:55:18.914Z,14.50
2022-08-14T19:57:58.883Z,14.63
2022-08-14T20:00:52.265Z,14.97
2022-08-14T20:03:59.229Z,17.55
2022-08-14T20:06:24.491Z,15.10
2022-08-14T20:10:59.185Z,13.10
2022-08-14T20:12:02.807Z,13.40
2022-08-14T20:14:38.735Z,16.27
2022-08-14T20:17:16.950Z,15.52
2022-08-14T20:19:52.368Z,18.15
2022-08-14T20:22:35.484Z,19.85
2022-08-14T20:25:15.134Z,17.60
2022-08-14T20:27:58.821Z,16.13
2022-08-14T20:30:36.127Z,17.70
2022-08-14T20:33:12.528Z,16.13
2022-08-14T20:35:51.650Z,15.80
2022-08-14T20:38:31.980Z,16.35
2022-08-14T20:41:10.732Z,17.50
2022-08-14T20:44:06.614Z,20.35
2022-08-14T20:46:42.283Z,17.42
2022-08-14T20:49:18.721Z,16.45
2022-08-14T20:51:59.415Z,15.73
2022-08-14T20:54:36.979Z,17.02
2022-08-14T20:57:24.717Z,15.93
2022-08-14T21:00:52.514Z,18.08
2022-08-14T21:03:56.998Z,15.65
2022-08-14T21:07:22.751Z,17.73
2022-08-14T21:10:03.030Z,16.05
2022-08-14T21:12:33.830Z,16.02
2022-08-14T21:15:13.917Z,19.55
2022-08-14T21:17:49.639Z,15.73
2022-08-14T21:20:29.007Z,15.93
2022-08-14T21:23:03.724Z,15.18
2022-08-14T21:25:38.511Z,14.52
2022-08-14T21:28:29.243Z,14.77
2022-08-14T21:31:05.462Z,16.02
2022-08-14T21:33:42.914Z,15.10
2022-08-14T21:36:22.056Z,14.15
2022-08-14T21:38:56.341Z,14.77
2022-08-14T21:41:43.188Z,14.30
2022-08-14T21:44:24.324Z,15.65
2022-08-14T21:47:17.326Z,16.05
2022-08-14T21:49:57.407Z,14.20
2022-08-14T21:55:26.881Z,14.68
2022-08-14T21:58:52.713Z,16.80
2022-08-14T22:01:01.416Z,16.23
2022-08-14T22:03:37.766Z,14.10
2022-08-14T22:06:20.025Z,13.50
2022-08-14T22:08:55.964Z,14.93
2022-08-14T22:11:30.535Z,15.93
2022-08-14T22:14:25.331Z,13.93
2022-08-14T22:17:12.623Z,14.75
2022-08-14T22:19:54.836Z,16.35
2022-08-14T22:22:29.609Z,15.27
2022-08-14T22:25:06.241Z,16.95
2022-08-14T22:27:55.748Z,16.73
2022-08-14T22:30:30.495Z,13.82
2022-08-14T22:33:06.076Z,14.55
2022-08-14T22:35:45.622Z,13.75
2022-08-14T22:38:37.639Z,13.00
2022-08-14T22:41:25.650Z,15.20
2022-08-14T22:44:06.555Z,13.07
2022-08-14T22:46:43.472Z,16.30
2022-08-14T22:50:29.454Z,13.50
2022-08-14T22:52:33.145Z,14.25
2022-08-14T22:55:08.549Z,13.77
2022-08-14T22:57:44.737Z,14.32
2022-08-14T23:00:25.308Z,15.10
2022-08-14T23:03:02.612Z,15.23
2022-08-14T23:05:39.964Z,15.20
2022-08-14T23:08:59.490Z,13.80
2022-08-14T23:11:19.679Z,14.52
2022-08-14T23:13:56.313Z,13.63
2022-08-14T23:16:36.297Z,12.75
2022-08-14T23:19:11.244Z,15.75
2022-08-14T23:21:46.427Z,13.32
2022-08-14T23:24:27.124Z,13.57
2022-08-14T23:27:01.408Z,13.27
2022-08-14T23:29:44.621Z,13.43
2022-08-14T23:32:19.295Z,14.20
2022-08-14T23:34:54.418Z,13.15
2022-08-14T23:37:28.680Z,13.70
2022-08-14T23:40:03.384Z,13.73
2022-08-14T23:43:02.412Z,14.30
2022-08-14T23:45:42.478Z,13.43
2022-08-14T23:48:23.791Z,13.63
2022-08-14T23:51:03.009Z,14.32
2022-08-14T23:53:48.421Z,13.90
2022-08-14T23:56:31.813Z,14.07
2022-08-14T23:59:06.022Z,13.90
